Terminal Aerodrome Forecast
Issued by NWS Houston/Galveston, TX

Home | Current Version | Previous Version | Text Only | Print | Product List | Glossary On
Versions: 1 2 3 4 5 6 7 8 9 10 11 12 13 14 15 16 17 18 19 20 21 22 23
000
FTUS44 KHGX 311127
TAFCLL
TAF
KCLL 311127Z 3112/0112 15003KT P6SM SCT015 BKN180
     FM311500 17006KT P6SM SCT025 BKN250
     FM311800 14007KT P6SM VCTS FEW025 SCT035CB SCT150
     FM010300 17007KT P6SM SCT035 BKN120
     FM010900 14005KT 4SM BR OVC015 PROB30 0110/0112 -RA=

USA.gov is the U.S. government's official web portal to all federal, state and local government web resources and services.